LIVE 192355Z 02004KT 9999 BKN025 12/10 Q1030 RMK BKN VIS MIN 9999 LIVE 192255Z 02004KT 9999 BKN025 12/10 Q1030 RMK BKN VIS MIN 9999 LIVE 192155Z 03002KT 9999 BKN020 12/07 Q1030 RMK BKN VIS MIN 9999 LIVE 192055Z 02003KT 9999 BKN020 13/07 Q1030 RMK BKN VIS MIN 9999 LIVE 191955Z 03002KT 9999 BKN025 16/10 Q1030 RMK BKN VIS MIN 9999 LIVE 191855Z 35003KT 9999 BKN025 16/10 Q1029 RMK BKN VIS MIN 9999 LIVE 191755Z 02005KT 9999 BKN025 16/09 Q1028 RMK BKN VIS MIN 9999 LIVE 191655Z 35005KT 9999 SCT025 17/08 Q1026 RMK SCT VIS MIN 9999 LIVE 191555Z 15005KT 9999 SCT025 18/10 Q1027 RMK SCT VIS MIN 9999 LIVE 191455Z 18007KT 9999 SCT025 18/10 Q1027 RMK SCT VIS MIN 9999 LIVE 191355Z 18007KT 9999 SCT025 18/10 Q1027 RMK SCT VIS MIN 9999 LIVE 191255Z 18007KT 9999 SCT020 18/10 Q1029 RMK SCT VIS MIN 9999 LIVE 191155Z 18008KT 9999 SCT020 18/10 Q1028 RMK SCT VIS MIN 9999 LIVE 191055Z 20008KT 9999 SCT020 17/11 Q1029 RMK SCT VIS MIN 9999 LIVE 190955Z 19008KT 9999 SCT025 16/11 Q1029 RMK SCT VIS MIN 9999 LIVE 190855Z 20008KT 9999 SCT020 13/11 Q1029 RMK SCT VIS MIN 9999 LIVE 190755Z 21005KT 9999 FEW020 SCT025 14/11 Q1029 RMK SCT VIS MIN 9999 LIVE 190655Z 22003KT 9999 SCT020 13/11 Q1029 RMK SCT VIS MIN 9999 LIVE 190555Z 21002KT 9999 BKN030 12/10 Q1029 RMK BKN VIS MIN 9999 LIVE 190455Z 00000KT 9999 FEW020 BKN025 12/10 Q1028 RMK BKN VIS MIN 9999 LIVE 190355Z 25002KT 9999 BKN030 12/11 Q1028 RMK BKN VIS MIN 9999 LIVE 190255Z 22002KT 9999 BKN030 12/11 Q1028 RMK BKN VIS MIN 9999 LIVE 190155Z 16002KT 9999 FEW025 BKN030 12/11 Q1028 RMK BKN VIS MIN 9999 LIVE 182355Z 16006KT CAVOK 13/10 Q1027 RMK BKN BKN060 VIS MIN 9999 LIVE 182255Z 15006KT 9999 BKN050 13/11 Q1027 RMK BKN VIS MIN 9999 LIVE 182155Z 15007KT 9999 FEW035 BKN050 13/10 Q1026 RMK BKN VIS MIN 9999 LIVE 182055Z 14009KT 9999 SCT025 13/10 Q1026 RMK SCT VIS MIN 9999 LIVE 181955Z 14010KT 9999 SCT030 14/09 Q1025 RMK SCT VIS MIN 9999 LIVE 181855Z 14008KT CAVOK 16/07 Q1025 RMK SKC VIS MIN 9999 LIVE 181755Z 21002KT CAVOK 18/06 Q1024 RMK FEW FEW080 VIS MIN 9999 LIVE 181655Z 01002KT CAVOK 19/04 Q1024 RMK SCT SCT070 VIS MIN 9999 LIVE 181555Z 36005KT CAVOK 20/04 Q1025 RMK FEW FEW070 VIS MIN 9999 LIVE 181455Z 01005KT CAVOK 21/03 Q1025 RMK FEW FEW060 VIS MIN 9999 LIVE 181355Z 02005KT CAVOK 21/04 Q1025 RMK SCT SCT060 VIS MIN 9999 LIVE 181255Z 01005KT CAVOK 21/04 Q1025 RMK SCT SCT060 VIS MIN 9999

METAR Messwerte "RESIA PASS" LIVE

Zurück zur Übersicht

Ortsname
Ländercode / m ü. NN
Zeit Temperatur Taupunkt Rel.
Luftfeuchte
Luftdruck:
Altimeter
NN
Station
Wind in Beaufort
(Knoten)
Sichtweite
(Meter)
Wolken
(Meter über Grund)
Wettererscheinung
RESIA PASS
IT 1684
Fr 20.05. 01:55121088 %1030
1033
841
NNO 2 (4)>= 10000Stark bewölkt (760) 
RESIA PASS
IT 1684
Fr 20.05. 00:55121088 %1030
1033
841
NNO 2 (4)>= 10000Stark bewölkt (760) 
RESIA PASS
IT 1684
Do 19.05. 23:5512771 %1030
1033
841
NNO 1 (2)>= 10000Stark bewölkt (610) 
RESIA PASS
IT 1684
Do 19.05. 22:5513767 %1030
1032
841
NNO 2 (3)>= 10000Stark bewölkt (610) 
RESIA PASS
IT 1684
Do 19.05. 21:55161068 %1030
1030
841
NNO 1 (2)>= 10000Stark bewölkt (760) 
RESIA PASS
IT 1684
Do 19.05. 20:55161068 %1029
1029
840
N 2 (3)>= 10000Stark bewölkt (760) 
RESIA PASS
IT 1684
Do 19.05. 19:5516963 %1028
1028
839
NNO 2 (5)>= 10000Stark bewölkt (760) 
RESIA PASS
IT 1684
Do 19.05. 18:5517855 %1026
1025
837
N 2 (5)>= 10000Wolkig (760) 
RESIA PASS
IT 1684
Do 19.05. 17:55181059 %1027
1025
838
SSO 2 (5)>= 10000Wolkig (760) 
RESIA PASS
IT 1684
Do 19.05. 16:55181059 %1027
1025
838
S 3 (7)>= 10000Wolkig (760) 
RESIA PASS
IT 1684
Do 19.05. 15:55181059 %1027
1025
838
S 3 (7)>= 10000Wolkig (760) 
RESIA PASS
IT 1684
Do 19.05. 14:55181059 %1029
1027
840
S 3 (7)>= 10000Wolkig (610) 
RESIA PASS
IT 1684
Do 19.05. 13:55181059 %1028
1026
839
S 3 (8)>= 10000Wolkig (610) 
RESIA PASS
IT 1684
Do 19.05. 12:55171168 %1029
1028
840
SSW 3 (8)>= 10000Wolkig (610) 
RESIA PASS
IT 1684
Do 19.05. 11:55161172 %1029
1029
840
S 3 (8)>= 10000Wolkig (760) 
RESIA PASS
IT 1684
Do 19.05. 10:55131188 %1029
1031
840
SSW 3 (8)>= 10000Wolkig (610) 
RESIA PASS
IT 1684
Do 19.05. 09:55141182 %1029
1030
840
SSW 2 (5)>= 10000Wolkig (760)
Leicht bewölkt (610)
 
RESIA PASS
IT 1684
Do 19.05. 08:55131188 %1029
1031
840
SW 2 (3)>= 10000Wolkig (610) 
RESIA PASS
IT 1684
Do 19.05. 07:55121088 %1029
1032
840
SSW 1 (2)>= 10000Stark bewölkt (910) 
RESIA PASS
IT 1684
Do 19.05. 06:55121088 %1028
1031
839
Windstill>= 10000Stark bewölkt (760)
Leicht bewölkt (610)
 
RESIA PASS
IT 1684
Do 19.05. 05:55121194 %1028
1031
839
WSW 1 (2)>= 10000Stark bewölkt (910) 
RESIA PASS
IT 1684
Do 19.05. 04:55121194 %1028
1031
839
SW 1 (2)>= 10000Stark bewölkt (910) 
RESIA PASS
IT 1684
Do 19.05. 03:55121194 %1028
1031
839
SSO 1 (2)>= 10000Stark bewölkt (910)
Leicht bewölkt (760)
 
RESIA PASS
IT 1684
Do 19.05. 01:55131082 %1027
1029
838
SSO 2 (6)>= 10000Nicht signifikant 
RESIA PASS
IT 1684
Do 19.05. 00:55131188 %1027
1029
838
SSO 2 (6)>= 10000Stark bewölkt (1500) 
RESIA PASS
IT 1684
Mi 18.05. 23:55131082 %1026
1028
837
SSO 3 (7)>= 10000Stark bewölkt (1500)
Leicht bewölkt (1100)
 
RESIA PASS
IT 1684
Mi 18.05. 22:55131082 %1026
1028
837
SO 3 (9)>= 10000Wolkig (760) 
RESIA PASS
IT 1684
Mi 18.05. 21:5514972 %1025
1026
837
SO 3 (10)>= 10000Wolkig (910) 
RESIA PASS
IT 1684
Mi 18.05. 20:5516755 %1025
1025
837
SO 3 (8)>= 10000Nicht signifikant 
RESIA PASS
IT 1684
Mi 18.05. 19:5518645 %1024
1022
836
SSW 1 (2)>= 10000Nicht signifikant 
RESIA PASS
IT 1684
Mi 18.05. 18:5519437 %1024
1021
836
N 1 (2)>= 10000Nicht signifikant 
RESIA PASS
IT 1684
Mi 18.05. 17:5520435 %1025
1022
837
N 2 (5)>= 10000Nicht signifikant 
RESIA PASS
IT 1684
Mi 18.05. 16:5521330 %1025
1021
837
N 2 (5)>= 10000Nicht signifikant 
RESIA PASS
IT 1684
Mi 18.05. 15:5521433 %1025
1021
837
NNO 2 (5)>= 10000Nicht signifikant 
RESIA PASS
IT 1684
Mi 18.05. 14:5521433 %1025
1021
837
N 2 (5)>= 10000Nicht signifikant 

Altimeter: Einstellung am Altimeter (Höhenmesser), die Höhe 0 muss auf diesen Luftdruckwert zeigen, damit das Gerät die Stationshöhe richtig anzeigt.

NN: Luftdruck reduziert auf "Normal Null", auf Meereshöhe, dieser von der Temperatur abhängige Wert wird bisweilen unkorrekt einfach als "Luftdruck" bezeichnet. Eigentlich nur eine fiktive Größe, die es erlaubt, Stationen auf unterschiedlichen Höhen miteinander zu vergleichen.

Station: Realer Luftdruck an der Station.